sensor_id;sensor_type;location;lat;lon;timestamp;P1;durP1;ratioP1;P2;durP2;ratioP2
44189;SDS011;29856;52.144;5.430;2023-06-24T00:02:12;11.73;;;8.15;;
44189;SDS011;29856;52.144;5.430;2023-06-24T00:04:38;9.68;;;8.68;;
44189;SDS011;29856;52.144;5.430;2023-06-24T00:07:04;10.20;;;7.55;;
44189;SDS011;29856;52.144;5.430;2023-06-24T00:09:29;8.25;;;7.40;;
44189;SDS011;29856;52.144;5.430;2023-06-24T00:11:55;9.50;;;7.10;;
44189;SDS011;29856;52.144;5.430;2023-06-24T00:14:22;8.02;;;6.55;;
44189;SDS011;29856;52.144;5.430;2023-06-24T00:16:48;10.00;;;7.18;;
44189;SDS011;29856;52.144;5.430;2023-06-24T00:19:13;8.48;;;7.22;;
44189;SDS011;29856;52.144;5.430;2023-06-24T00:21:39;8.45;;;6.43;;
44189;SDS011;29856;52.144;5.430;2023-06-24T00:24:05;8.15;;;6.43;;
44189;SDS011;29856;52.144;5.430;2023-06-24T00:26:30;8.70;;;7.28;;
44189;SDS011;29856;52.144;5.430;2023-06-24T00:28:56;6.80;;;6.10;;
44189;SDS011;29856;52.144;5.430;2023-06-24T00:31:22;7.75;;;7.00;;
44189;SDS011;29856;52.144;5.430;2023-06-24T00:33:48;7.78;;;6.65;;
44189;SDS011;29856;52.144;5.430;2023-06-24T00:36:13;6.93;;;6.22;;
44189;SDS011;29856;52.144;5.430;2023-06-24T00:38:39;12.80;;;9.15;;
44189;SDS011;29856;52.144;5.430;2023-06-24T00:41:05;7.72;;;6.93;;
44189;SDS011;29856;52.144;5.430;2023-06-24T00:43:34;9.27;;;6.60;;
44189;SDS011;29856;52.144;5.430;2023-06-24T00:46:00;11.73;;;7.80;;
44189;SDS011;29856;52.144;5.430;2023-06-24T00:48:25;8.85;;;7.05;;
44189;SDS011;29856;52.144;5.430;2023-06-24T00:50:51;7.10;;;6.40;;
44189;SDS011;29856;52.144;5.430;2023-06-24T00:53:17;9.18;;;7.72;;
44189;SDS011;29856;52.144;5.430;2023-06-24T00:55:44;9.48;;;7.15;;
44189;SDS011;29856;52.144;5.430;2023-06-24T00:58:14;7.72;;;6.93;;
44189;SDS011;29856;52.144;5.430;2023-06-24T01:00:40;8.55;;;7.35;;
44189;SDS011;29856;52.144;5.430;2023-06-24T01:03:05;8.85;;;7.25;;
44189;SDS011;29856;52.144;5.430;2023-06-24T01:05:31;10.30;;;8.07;;
44189;SDS011;29856;52.144;5.430;2023-06-24T01:07:57;9.32;;;7.85;;
44189;SDS011;29856;52.144;5.430;2023-06-24T01:10:23;10.30;;;8.02;;
44189;SDS011;29856;52.144;5.430;2023-06-24T01:12:49;8.98;;;7.68;;
44189;SDS011;29856;52.144;5.430;2023-06-24T01:15:18;11.73;;;7.55;;
44189;SDS011;29856;52.144;5.430;2023-06-24T01:17:46;8.32;;;7.45;;
44189;SDS011;29856;52.144;5.430;2023-06-24T01:31:29;14.52;;;9.63;;
44189;SDS011;29856;52.144;5.430;2023-06-24T01:34:17;11.98;;;10.27;;
44189;SDS011;29856;52.144;5.430;2023-06-24T01:37:09;14.55;;;10.55;;
44189;SDS011;29856;52.144;5.430;2023-06-24T01:39:42;12.32;;;10.35;;
44189;SDS011;29856;52.144;5.430;2023-06-24T01:42:14;12.70;;;11.30;;
44189;SDS011;29856;52.144;5.430;2023-06-24T01:44:42;14.40;;;11.27;;
44189;SDS011;29856;52.144;5.430;2023-06-24T01:47:08;16.40;;;11.45;;
44189;SDS011;29856;52.144;5.430;2023-06-24T01:49:36;15.00;;;10.70;;
44189;SDS011;29856;52.144;5.430;2023-06-24T01:52:05;13.00;;;11.30;;
44189;SDS011;29856;52.144;5.430;2023-06-24T01:54:35;13.35;;;10.38;;
44189;SDS011;29856;52.144;5.430;2023-06-24T01:57:02;12.50;;;9.85;;
44189;SDS011;29856;52.144;5.430;2023-06-24T01:59:31;10.70;;;9.70;;
44189;SDS011;29856;52.144;5.430;2023-06-24T02:01:57;13.65;;;9.95;;
44189;SDS011;29856;52.144;5.430;2023-06-24T02:04:25;13.10;;;9.45;;
44189;SDS011;29856;52.144;5.430;2023-06-24T02:06:52;11.52;;;9.35;;
44189;SDS011;29856;52.144;5.430;2023-06-24T02:09:18;12.35;;;9.55;;
44189;SDS011;29856;52.144;5.430;2023-06-24T02:11:46;11.18;;;8.63;;
44189;SDS011;29856;52.144;5.430;2023-06-24T02:14:11;10.75;;;8.55;;
44189;SDS011;29856;52.144;5.430;2023-06-24T02:16:39;14.52;;;9.18;;
44189;SDS011;29856;52.144;5.430;2023-06-24T02:19:06;12.05;;;9.02;;
44189;SDS011;29856;52.144;5.430;2023-06-24T02:21:34;12.57;;;8.90;;
44189;SDS011;29856;52.144;5.430;2023-06-24T02:24:03;10.02;;;8.35;;
44189;SDS011;29856;52.144;5.430;2023-06-24T02:26:29;10.38;;;9.32;;
44189;SDS011;29856;52.144;5.430;2023-06-24T02:28:55;10.50;;;9.05;;
44189;SDS011;29856;52.144;5.430;2023-06-24T02:31:21;9.75;;;8.85;;
44189;SDS011;29856;52.144;5.430;2023-06-24T02:33:46;11.23;;;10.02;;
44189;SDS011;29856;52.144;5.430;2023-06-24T02:36:12;10.32;;;9.23;;
44189;SDS011;29856;52.144;5.430;2023-06-24T02:38:37;9.48;;;8.60;;
44189;SDS011;29856;52.144;5.430;2023-06-24T02:41:03;10.60;;;8.90;;
44189;SDS011;29856;52.144;5.430;2023-06-24T02:43:28;11.93;;;8.43;;
44189;SDS011;29856;52.144;5.430;2023-06-24T02:45:54;10.75;;;8.02;;
44189;SDS011;29856;52.144;5.430;2023-06-24T02:48:20;12.57;;;8.70;;
44189;SDS011;29856;52.144;5.430;2023-06-24T02:50:46;9.40;;;8.50;;
44189;SDS011;29856;52.144;5.430;2023-06-24T02:53:12;9.52;;;8.50;;
44189;SDS011;29856;52.144;5.430;2023-06-24T02:55:40;9.85;;;8.85;;
44189;SDS011;29856;52.144;5.430;2023-06-24T02:58:06;13.02;;;8.80;;
44189;SDS011;29856;52.144;5.430;2023-06-24T03:00:32;10.50;;;9.48;;
44189;SDS011;29856;52.144;5.430;2023-06-24T03:02:58;9.80;;;8.80;;
44189;SDS011;29856;52.144;5.430;2023-06-24T03:05:24;14.52;;;9.52;;
44189;SDS011;29856;52.144;5.430;2023-06-24T03:07:49;12.07;;;8.45;;
44189;SDS011;29856;52.144;5.430;2023-06-24T03:10:15;10.27;;;8.63;;
44189;SDS011;29856;52.144;5.430;2023-06-24T03:12:41;10.10;;;9.10;;
44189;SDS011;29856;52.144;5.430;2023-06-24T03:15:06;9.60;;;8.55;;
44189;SDS011;29856;52.144;5.430;2023-06-24T03:17:32;9.75;;;8.13;;
44189;SDS011;29856;52.144;5.430;2023-06-24T03:19:57;10.40;;;8.95;;
44189;SDS011;29856;52.144;5.430;2023-06-24T03:22:23;11.00;;;9.00;;
44189;SDS011;29856;52.144;5.430;2023-06-24T03:24:49;10.32;;;8.65;;
44189;SDS011;29856;52.144;5.430;2023-06-24T03:27:14;12.35;;;8.68;;
44189;SDS011;29856;52.144;5.430;2023-06-24T03:29:40;9.98;;;8.75;;
44189;SDS011;29856;52.144;5.430;2023-06-24T03:32:06;9.88;;;8.98;;
44189;SDS011;29856;52.144;5.430;2023-06-24T03:34:31;10.85;;;9.38;;
44189;SDS011;29856;52.144;5.430;2023-06-24T03:36:57;13.77;;;9.85;;
44189;SDS011;29856;52.144;5.430;2023-06-24T03:39:22;10.63;;;8.80;;
44189;SDS011;29856;52.144;5.430;2023-06-24T03:41:48;9.20;;;8.32;;
44189;SDS011;29856;52.144;5.430;2023-06-24T03:44:13;10.43;;;8.55;;
44189;SDS011;29856;52.144;5.430;2023-06-24T03:46:39;10.07;;;8.40;;
44189;SDS011;29856;52.144;5.430;2023-06-24T03:49:05;9.88;;;8.57;;
44189;SDS011;29856;52.144;5.430;2023-06-24T03:51:30;10.07;;;8.88;;
44189;SDS011;29856;52.144;5.430;2023-06-24T03:53:56;11.18;;;8.27;;
44189;SDS011;29856;52.144;5.430;2023-06-24T03:56:21;9.10;;;8.20;;
44189;SDS011;29856;52.144;5.430;2023-06-24T03:58:47;12.00;;;8.90;;
44189;SDS011;29856;52.144;5.430;2023-06-24T04:01:12;10.60;;;8.75;;
44189;SDS011;29856;52.144;5.430;2023-06-24T04:03:37;11.05;;;8.90;;
44189;SDS011;29856;52.144;5.430;2023-06-24T04:06:03;10.18;;;9.18;;
44189;SDS011;29856;52.144;5.430;2023-06-24T04:08:28;9.77;;;8.38;;
44189;SDS011;29856;52.144;5.430;2023-06-24T04:10:57;12.00;;;8.77;;
44189;SDS011;29856;52.144;5.430;2023-06-24T04:13:23;10.20;;;9.20;;
44189;SDS011;29856;52.144;5.430;2023-06-24T04:15:48;11.15;;;8.90;;
44189;SDS011;29856;52.144;5.430;2023-06-24T04:18:14;8.68;;;7.70;;
44189;SDS011;29856;52.144;5.430;2023-06-24T04:20:39;10.88;;;8.35;;
44189;SDS011;29856;52.144;5.430;2023-06-24T04:23:05;12.48;;;9.20;;
44189;SDS011;29856;52.144;5.430;2023-06-24T04:25:30;8.57;;;7.38;;
44189;SDS011;29856;52.144;5.430;2023-06-24T04:27:56;10.68;;;8.55;;
44189;SDS011;29856;52.144;5.430;2023-06-24T04:30:21;11.45;;;9.00;;
44189;SDS011;29856;52.144;5.430;2023-06-24T04:32:47;9.20;;;8.10;;
44189;SDS011;29856;52.144;5.430;2023-06-24T04:35:12;10.90;;;9.07;;
44189;SDS011;29856;52.144;5.430;2023-06-24T04:37:38;9.00;;;8.07;;
44189;SDS011;29856;52.144;5.430;2023-06-24T04:40:03;10.90;;;8.18;;
44189;SDS011;29856;52.144;5.430;2023-06-24T04:42:30;10.00;;;8.35;;
44189;SDS011;29856;52.144;5.430;2023-06-24T04:44:55;10.07;;;9.07;;
44189;SDS011;29856;52.144;5.430;2023-06-24T04:47:21;8.95;;;7.85;;
44189;SDS011;29856;52.144;5.430;2023-06-24T04:49:46;10.35;;;9.25;;
44189;SDS011;29856;52.144;5.430;2023-06-24T04:52:12;13.05;;;9.55;;
44189;SDS011;29856;52.144;5.430;2023-06-24T04:54:37;9.88;;;8.57;;
44189;SDS011;29856;52.144;5.430;2023-06-24T04:57:06;10.95;;;8.43;;
44189;SDS011;29856;52.144;5.430;2023-06-24T04:59:34;11.10;;;8.93;;
44189;SDS011;29856;52.144;5.430;2023-06-24T05:01:59;9.63;;;7.65;;
44189;SDS011;29856;52.144;5.430;2023-06-24T05:04:25;12.98;;;7.80;;
44189;SDS011;29856;52.144;5.430;2023-06-24T05:06:50;7.75;;;7.05;;
44189;SDS011;29856;52.144;5.430;2023-06-24T05:09:16;8.25;;;6.82;;
44189;SDS011;29856;52.144;5.430;2023-06-24T05:11:42;8.32;;;7.10;;
44189;SDS011;29856;52.144;5.430;2023-06-24T05:14:07;7.75;;;6.95;;
44189;SDS011;29856;52.144;5.430;2023-06-24T05:16:33;7.95;;;6.38;;
44189;SDS011;29856;52.144;5.430;2023-06-24T05:18:58;8.07;;;6.43;;
44189;SDS011;29856;52.144;5.430;2023-06-24T05:21:24;6.95;;;5.70;;
44189;SDS011;29856;52.144;5.430;2023-06-24T05:23:49;8.40;;;5.80;;
44189;SDS011;29856;52.144;5.430;2023-06-24T05:26:15;6.75;;;6.03;;
44189;SDS011;29856;52.144;5.430;2023-06-24T05:28:40;6.65;;;5.90;;
44189;SDS011;29856;52.144;5.430;2023-06-24T05:31:06;6.78;;;5.47;;
44189;SDS011;29856;52.144;5.430;2023-06-24T05:33:31;7.35;;;5.57;;
44189;SDS011;29856;52.144;5.430;2023-06-24T05:35:57;5.22;;;4.70;;
44189;SDS011;29856;52.144;5.430;2023-06-24T05:38:22;8.32;;;4.82;;
44189;SDS011;29856;52.144;5.430;2023-06-24T05:40:48;6.80;;;5.10;;
44189;SDS011;29856;52.144;5.430;2023-06-24T05:43:13;5.10;;;4.45;;
44189;SDS011;29856;52.144;5.430;2023-06-24T05:45:39;6.38;;;4.28;;
44189;SDS011;29856;52.144;5.430;2023-06-24T05:48:04;5.93;;;4.82;;
44189;SDS011;29856;52.144;5.430;2023-06-24T05:50:30;5.95;;;4.78;;
44189;SDS011;29856;52.144;5.430;2023-06-24T05:52:55;7.45;;;4.38;;
44189;SDS011;29856;52.144;5.430;2023-06-24T05:55:21;6.10;;;4.80;;
44189;SDS011;29856;52.144;5.430;2023-06-24T05:57:46;5.95;;;5.18;;
44189;SDS011;29856;52.144;5.430;2023-06-24T06:00:12;6.65;;;4.47;;
44189;SDS011;29856;52.144;5.430;2023-06-24T06:02:37;4.82;;;4.18;;
44189;SDS011;29856;52.144;5.430;2023-06-24T06:05:03;5.68;;;4.97;;
44189;SDS011;29856;52.144;5.430;2023-06-24T06:07:29;5.43;;;4.75;;
44189;SDS011;29856;52.144;5.430;2023-06-24T06:09:55;8.07;;;4.55;;
44189;SDS011;29856;52.144;5.430;2023-06-24T06:12:20;4.30;;;3.88;;
44189;SDS011;29856;52.144;5.430;2023-06-24T06:14:46;5.07;;;3.90;;
44189;SDS011;29856;52.144;5.430;2023-06-24T06:17:11;5.68;;;4.03;;
44189;SDS011;29856;52.144;5.430;2023-06-24T06:19:38;5.47;;;3.60;;
44189;SDS011;29856;52.144;5.430;2023-06-24T06:22:04;5.25;;;3.90;;
44189;SDS011;29856;52.144;5.430;2023-06-24T06:24:30;5.28;;;4.50;;
44189;SDS011;29856;52.144;5.430;2023-06-24T06:26:57;5.40;;;3.78;;
44189;SDS011;29856;52.144;5.430;2023-06-24T06:29:23;7.03;;;4.13;;
44189;SDS011;29856;52.144;5.430;2023-06-24T06:31:48;6.63;;;4.50;;
44189;SDS011;29856;52.144;5.430;2023-06-24T06:34:14;6.95;;;3.70;;
44189;SDS011;29856;52.144;5.430;2023-06-24T06:36:39;4.90;;;3.90;;
44189;SDS011;29856;52.144;5.430;2023-06-24T06:39:05;5.68;;;4.10;;
44189;SDS011;29856;52.144;5.430;2023-06-24T06:41:30;4.38;;;3.97;;
44189;SDS011;29856;52.144;5.430;2023-06-24T06:43:55;6.70;;;4.28;;
44189;SDS011;29856;52.144;5.430;2023-06-24T06:46:21;6.03;;;3.58;;
44189;SDS011;29856;52.144;5.430;2023-06-24T06:48:47;4.57;;;3.88;;
44189;SDS011;29856;52.144;5.430;2023-06-24T06:51:12;6.05;;;4.38;;
44189;SDS011;29856;52.144;5.430;2023-06-24T06:53:38;5.18;;;4.07;;
44189;SDS011;29856;52.144;5.430;2023-06-24T06:56:04;6.18;;;3.85;;
44189;SDS011;29856;52.144;5.430;2023-06-24T06:58:29;7.03;;;3.75;;
44189;SDS011;29856;52.144;5.430;2023-06-24T07:00:55;10.98;;;3.80;;
44189;SDS011;29856;52.144;5.430;2023-06-24T07:03:20;4.65;;;3.92;;
44189;SDS011;29856;52.144;5.430;2023-06-24T07:05:46;5.47;;;3.40;;
44189;SDS011;29856;52.144;5.430;2023-06-24T07:08:11;9.20;;;3.80;;
44189;SDS011;29856;52.144;5.430;2023-06-24T07:10:37;3.78;;;3.33;;
44189;SDS011;29856;52.144;5.430;2023-06-24T07:13:02;4.43;;;3.70;;
44189;SDS011;29856;52.144;5.430;2023-06-24T07:15:28;3.55;;;3.25;;
44189;SDS011;29856;52.144;5.430;2023-06-24T07:17:53;4.18;;;3.22;;
44189;SDS011;29856;52.144;5.430;2023-06-24T07:20:22;6.53;;;4.00;;
44189;SDS011;29856;52.144;5.430;2023-06-24T07:22:47;6.05;;;3.70;;
44189;SDS011;29856;52.144;5.430;2023-06-24T07:25:13;5.63;;;3.05;;
44189;SDS011;29856;52.144;5.430;2023-06-24T07:27:39;5.28;;;3.13;;
44189;SDS011;29856;52.144;5.430;2023-06-24T07:30:05;4.28;;;3.38;;
44189;SDS011;29856;52.144;5.430;2023-06-24T07:32:31;6.05;;;3.58;;
44189;SDS011;29856;52.144;5.430;2023-06-24T07:34:56;3.78;;;3.33;;
44189;SDS011;29856;52.144;5.430;2023-06-24T07:37:22;4.75;;;3.22;;
44189;SDS011;29856;52.144;5.430;2023-06-24T07:39:48;4.32;;;3.70;;
44189;SDS011;29856;52.144;5.430;2023-06-24T07:42:13;3.38;;;3.05;;
44189;SDS011;29856;52.144;5.430;2023-06-24T07:44:39;5.07;;;3.92;;
44189;SDS011;29856;52.144;5.430;2023-06-24T07:47:04;4.70;;;3.50;;
44189;SDS011;29856;52.144;5.430;2023-06-24T07:49:30;4.00;;;3.60;;
44189;SDS011;29856;52.144;5.430;2023-06-24T07:51:55;5.20;;;3.60;;
44189;SDS011;29856;52.144;5.430;2023-06-24T07:54:21;4.88;;;3.53;;
44189;SDS011;29856;52.144;5.430;2023-06-24T07:56:46;4.20;;;3.47;;
44189;SDS011;29856;52.144;5.430;2023-06-24T07:59:12;4.35;;;3.60;;
44189;SDS011;29856;52.144;5.430;2023-06-24T08:01:37;6.47;;;3.72;;
44189;SDS011;29856;52.144;5.430;2023-06-24T08:04:03;4.05;;;3.20;;
44189;SDS011;29856;52.144;5.430;2023-06-24T08:06:28;3.83;;;3.20;;
44189;SDS011;29856;52.144;5.430;2023-06-24T08:08:54;4.38;;;2.80;;
44189;SDS011;29856;52.144;5.430;2023-06-24T08:11:19;3.53;;;3.00;;
44189;SDS011;29856;52.144;5.430;2023-06-24T08:13:45;6.03;;;3.50;;
44189;SDS011;29856;52.144;5.430;2023-06-24T08:16:10;6.68;;;3.22;;
44189;SDS011;29856;52.144;5.430;2023-06-24T08:18:36;6.40;;;3.40;;
44189;SDS011;29856;52.144;5.430;2023-06-24T08:21:01;3.90;;;3.28;;
44189;SDS011;29856;52.144;5.430;2023-06-24T08:23:27;7.20;;;3.15;;
44189;SDS011;29856;52.144;5.430;2023-06-24T08:25:52;3.78;;;2.75;;
44189;SDS011;29856;52.144;5.430;2023-06-24T08:28:18;3.83;;;3.20;;
44189;SDS011;29856;52.144;5.430;2023-06-24T08:30:43;5.13;;;3.50;;
44189;SDS011;29856;52.144;5.430;2023-06-24T08:33:09;5.53;;;3.75;;
44189;SDS011;29856;52.144;5.430;2023-06-24T08:35:34;4.95;;;2.85;;
44189;SDS011;29856;52.144;5.430;2023-06-24T08:38:00;7.93;;;3.67;;
44189;SDS011;29856;52.144;5.430;2023-06-24T08:40:25;6.03;;;3.10;;
44189;SDS011;29856;52.144;5.430;2023-06-24T08:42:52;4.75;;;3.08;;
44189;SDS011;29856;52.144;5.430;2023-06-24T08:45:17;4.68;;;3.50;;
44189;SDS011;29856;52.144;5.430;2023-06-24T08:47:43;3.40;;;3.10;;
44189;SDS011;29856;52.144;5.430;2023-06-24T08:50:13;7.10;;;3.50;;
44189;SDS011;29856;52.144;5.430;2023-06-24T08:52:48;4.35;;;3.35;;
44189;SDS011;29856;52.144;5.430;2023-06-24T08:55:16;5.95;;;3.75;;
44189;SDS011;29856;52.144;5.430;2023-06-24T08:57:43;5.50;;;4.20;;
44189;SDS011;29856;52.144;5.430;2023-06-24T09:00:09;5.88;;;3.58;;
44189;SDS011;29856;52.144;5.430;2023-06-24T09:02:35;8.70;;;3.88;;
44189;SDS011;29856;52.144;5.430;2023-06-24T09:05:01;6.80;;;3.28;;
44189;SDS011;29856;52.144;5.430;2023-06-24T09:07:27;4.65;;;3.25;;
44189;SDS011;29856;52.144;5.430;2023-06-24T09:09:53;4.93;;;3.65;;
44189;SDS011;29856;52.144;5.430;2023-06-24T09:12:19;5.40;;;4.00;;
44189;SDS011;29856;52.144;5.430;2023-06-24T09:14:47;5.18;;;3.22;;
44189;SDS011;29856;52.144;5.430;2023-06-24T09:17:14;5.75;;;4.40;;
44189;SDS011;29856;52.144;5.430;2023-06-24T09:19:39;4.00;;;3.60;;
44189;SDS011;29856;52.144;5.430;2023-06-24T09:22:06;5.25;;;3.90;;
44189;SDS011;29856;52.144;5.430;2023-06-24T09:24:35;6.38;;;3.20;;
44189;SDS011;29856;52.144;5.430;2023-06-24T09:27:01;5.80;;;3.00;;
44189;SDS011;29856;52.144;5.430;2023-06-24T09:29:31;5.50;;;3.25;;
44189;SDS011;29856;52.144;5.430;2023-06-24T09:31:57;7.10;;;4.10;;
44189;SDS011;29856;52.144;5.430;2023-06-24T09:34:23;4.00;;;3.05;;
44189;SDS011;29856;52.144;5.430;2023-06-24T09:36:52;5.45;;;3.75;;
44189;SDS011;29856;52.144;5.430;2023-06-24T09:39:20;9.13;;;4.18;;
44189;SDS011;29856;52.144;5.430;2023-06-24T09:41:48;4.68;;;3.75;;
44189;SDS011;29856;52.144;5.430;2023-06-24T09:44:15;9.38;;;4.75;;
44189;SDS011;29856;52.144;5.430;2023-06-24T09:46:41;6.40;;;4.03;;
44189;SDS011;29856;52.144;5.430;2023-06-24T09:49:08;3.85;;;3.45;;
44189;SDS011;29856;52.144;5.430;2023-06-24T09:51:43;6.88;;;3.97;;
44189;SDS011;29856;52.144;5.430;2023-06-24T09:54:09;6.80;;;4.07;;
44189;SDS011;29856;52.144;5.430;2023-06-24T09:56:37;7.97;;;3.92;;
44189;SDS011;29856;52.144;5.430;2023-06-24T09:59:05;5.35;;;3.80;;
44189;SDS011;29856;52.144;5.430;2023-06-24T10:01:32;8.77;;;3.80;;
44189;SDS011;29856;52.144;5.430;2023-06-24T10:04:03;5.93;;;3.22;;
44189;SDS011;29856;52.144;5.430;2023-06-24T10:06:30;4.15;;;3.75;;
44189;SDS011;29856;52.144;5.430;2023-06-24T10:08:57;5.72;;;4.05;;
44189;SDS011;29856;52.144;5.430;2023-06-24T10:11:23;5.63;;;3.47;;
44189;SDS011;29856;52.144;5.430;2023-06-24T10:13:49;4.72;;;3.58;;
44189;SDS011;29856;52.144;5.430;2023-06-24T10:16:14;4.95;;;3.58;;
44189;SDS011;29856;52.144;5.430;2023-06-24T10:18:40;4.65;;;3.50;;
44189;SDS011;29856;52.144;5.430;2023-06-24T10:21:08;6.07;;;3.58;;
44189;SDS011;29856;52.144;5.430;2023-06-24T10:23:51;4.18;;;3.40;;
44189;SDS011;29856;52.144;5.430;2023-06-24T10:26:29;5.00;;;3.80;;
44189;SDS011;29856;52.144;5.430;2023-06-24T10:37:19;6.45;;;3.92;;
44189;SDS011;29856;52.144;5.430;2023-06-24T10:44:48;4.88;;;3.50;;
44189;SDS011;29856;52.144;5.430;2023-06-24T10:47:15;6.15;;;3.65;;
44189;SDS011;29856;52.144;5.430;2023-06-24T10:49:40;9.57;;;4.03;;
44189;SDS011;29856;52.144;5.430;2023-06-24T10:52:09;7.75;;;4.13;;
44189;SDS011;29856;52.144;5.430;2023-06-24T10:54:36;5.78;;;4.45;;
44189;SDS011;29856;52.144;5.430;2023-06-24T10:57:03;7.57;;;4.40;;
44189;SDS011;29856;52.144;5.430;2023-06-24T10:59:33;7.03;;;4.70;;
44189;SDS011;29856;52.144;5.430;2023-06-24T11:01:59;6.82;;;4.80;;
44189;SDS011;29856;52.144;5.430;2023-06-24T11:04:25;5.30;;;4.80;;
44189;SDS011;29856;52.144;5.430;2023-06-24T11:06:58;7.22;;;4.75;;
44189;SDS011;29856;52.144;5.430;2023-06-24T11:09:23;7.40;;;4.28;;
44189;SDS011;29856;52.144;5.430;2023-06-24T11:11:49;6.63;;;3.85;;
44189;SDS011;29856;52.144;5.430;2023-06-24T11:14:17;6.55;;;4.55;;
44189;SDS011;29856;52.144;5.430;2023-06-24T11:16:45;8.73;;;4.70;;
44189;SDS011;29856;52.144;5.430;2023-06-24T11:19:10;5.88;;;4.60;;
44189;SDS011;29856;52.144;5.430;2023-06-24T11:21:36;7.40;;;5.00;;
44189;SDS011;29856;52.144;5.430;2023-06-24T11:24:02;9.98;;;4.60;;
44189;SDS011;29856;52.144;5.430;2023-06-24T11:26:28;6.38;;;4.13;;
44189;SDS011;29856;52.144;5.430;2023-06-24T11:28:54;9.43;;;4.85;;
44189;SDS011;29856;52.144;5.430;2023-06-24T11:31:24;7.72;;;4.93;;
44189;SDS011;29856;52.144;5.430;2023-06-24T11:33:50;6.53;;;4.30;;
44189;SDS011;29856;52.144;5.430;2023-06-24T11:36:17;4.88;;;4.07;;
44189;SDS011;29856;52.144;5.430;2023-06-24T11:38:45;5.55;;;4.32;;
44189;SDS011;29856;52.144;5.430;2023-06-24T11:41:11;5.68;;;4.38;;
44189;SDS011;29856;52.144;5.430;2023-06-24T11:43:36;5.22;;;4.13;;
44189;SDS011;29856;52.144;5.430;2023-06-24T11:46:02;7.57;;;4.68;;
44189;SDS011;29856;52.144;5.430;2023-06-24T11:48:30;7.18;;;4.13;;
44189;SDS011;29856;52.144;5.430;2023-06-24T11:51:03;7.75;;;4.25;;
44189;SDS011;29856;52.144;5.430;2023-06-24T11:53:29;4.57;;;4.18;;
44189;SDS011;29856;52.144;5.430;2023-06-24T11:55:55;7.45;;;5.05;;
44189;SDS011;29856;52.144;5.430;2023-06-24T11:58:21;5.22;;;4.60;;
44189;SDS011;29856;52.144;5.430;2023-06-24T12:00:48;5.43;;;4.53;;
44189;SDS011;29856;52.144;5.430;2023-06-24T12:03:13;5.18;;;4.57;;
44189;SDS011;29856;52.144;5.430;2023-06-24T12:05:39;5.60;;;4.20;;
44189;SDS011;29856;52.144;5.430;2023-06-24T12:08:05;6.25;;;5.28;;
44189;SDS011;29856;52.144;5.430;2023-06-24T12:10:34;5.40;;;4.75;;
44189;SDS011;29856;52.144;5.430;2023-06-24T12:13:02;5.38;;;4.40;;
44189;SDS011;29856;52.144;5.430;2023-06-24T12:15:29;9.10;;;5.07;;
44189;SDS011;29856;52.144;5.430;2023-06-24T12:17:55;7.28;;;5.25;;
44189;SDS011;29856;52.144;5.430;2023-06-24T12:20:20;9.32;;;5.13;;
44189;SDS011;29856;52.144;5.430;2023-06-24T12:22:47;5.35;;;4.30;;
44189;SDS011;29856;52.144;5.430;2023-06-24T12:25:13;6.07;;;4.90;;
44189;SDS011;29856;52.144;5.430;2023-06-24T12:27:39;5.82;;;4.70;;
44189;SDS011;29856;52.144;5.430;2023-06-24T12:30:04;5.20;;;4.68;;
44189;SDS011;29856;52.144;5.430;2023-06-24T12:32:31;5.47;;;4.75;;
44189;SDS011;29856;52.144;5.430;2023-06-24T12:34:56;5.47;;;4.93;;
44189;SDS011;29856;52.144;5.430;2023-06-24T12:37:22;5.78;;;5.20;;
44189;SDS011;29856;52.144;5.430;2023-06-24T12:39:47;6.28;;;5.15;;
44189;SDS011;29856;52.144;5.430;2023-06-24T12:42:13;8.07;;;4.68;;
44189;SDS011;29856;52.144;5.430;2023-06-24T12:44:38;6.00;;;5.00;;
44189;SDS011;29856;52.144;5.430;2023-06-24T12:47:04;7.75;;;4.47;;
44189;SDS011;29856;52.144;5.430;2023-06-24T12:49:30;4.30;;;3.63;;
44189;SDS011;29856;52.144;5.430;2023-06-24T12:51:55;7.53;;;4.80;;
44189;SDS011;29856;52.144;5.430;2023-06-24T12:54:21;5.72;;;4.70;;
44189;SDS011;29856;52.144;5.430;2023-06-24T12:56:46;7.53;;;5.40;;
44189;SDS011;29856;52.144;5.430;2023-06-24T12:59:12;8.68;;;5.78;;
44189;SDS011;29856;52.144;5.430;2023-06-24T13:01:37;7.00;;;4.15;;
44189;SDS011;29856;52.144;5.430;2023-06-24T13:04:03;5.90;;;4.03;;
44189;SDS011;29856;52.144;5.430;2023-06-24T13:06:28;5.70;;;4.53;;
44189;SDS011;29856;52.144;5.430;2023-06-24T13:08:54;5.35;;;4.10;;
44189;SDS011;29856;52.144;5.430;2023-06-24T13:11:19;8.75;;;4.72;;
44189;SDS011;29856;52.144;5.430;2023-06-24T13:13:45;5.15;;;4.60;;
44189;SDS011;29856;52.144;5.430;2023-06-24T13:16:10;5.07;;;4.47;;
44189;SDS011;29856;52.144;5.430;2023-06-24T13:18:36;6.88;;;4.53;;
44189;SDS011;29856;52.144;5.430;2023-06-24T13:21:01;4.85;;;4.32;;
44189;SDS011;29856;52.144;5.430;2023-06-24T13:23:27;6.47;;;4.30;;
44189;SDS011;29856;52.144;5.430;2023-06-24T13:25:52;7.00;;;3.95;;
44189;SDS011;29856;52.144;5.430;2023-06-24T13:28:18;5.38;;;4.07;;
44189;SDS011;29856;52.144;5.430;2023-06-24T13:30:43;8.18;;;4.07;;
44189;SDS011;29856;52.144;5.430;2023-06-24T13:33:09;6.40;;;4.63;;
44189;SDS011;29856;52.144;5.430;2023-06-24T13:35:34;5.55;;;4.00;;
44189;SDS011;29856;52.144;5.430;2023-06-24T13:38:00;6.20;;;4.22;;
44189;SDS011;29856;52.144;5.430;2023-06-24T13:40:25;8.45;;;4.07;;
44189;SDS011;29856;52.144;5.430;2023-06-24T13:42:51;6.32;;;4.10;;
44189;SDS011;29856;52.144;5.430;2023-06-24T13:45:16;8.50;;;3.83;;
44189;SDS011;29856;52.144;5.430;2023-06-24T13:47:42;6.18;;;3.80;;
44189;SDS011;29856;52.144;5.430;2023-06-24T13:50:07;5.32;;;3.67;;
44189;SDS011;29856;52.144;5.430;2023-06-24T13:52:33;4.65;;;3.90;;
44189;SDS011;29856;52.144;5.430;2023-06-24T13:54:58;9.02;;;3.92;;
44189;SDS011;29856;52.144;5.430;2023-06-24T13:57:24;5.13;;;4.07;;
44189;SDS011;29856;52.144;5.430;2023-06-24T13:59:50;7.78;;;4.05;;
44189;SDS011;29856;52.144;5.430;2023-06-24T14:02:16;7.18;;;3.90;;
44189;SDS011;29856;52.144;5.430;2023-06-24T14:04:41;6.80;;;4.30;;
44189;SDS011;29856;52.144;5.430;2023-06-24T14:07:07;8.38;;;4.03;;
44189;SDS011;29856;52.144;5.430;2023-06-24T14:09:33;5.78;;;3.65;;
44189;SDS011;29856;52.144;5.430;2023-06-24T14:11:59;7.25;;;3.70;;
44189;SDS011;29856;52.144;5.430;2023-06-24T14:14:24;4.30;;;3.70;;
44189;SDS011;29856;52.144;5.430;2023-06-24T14:16:50;5.65;;;3.80;;
44189;SDS011;29856;52.144;5.430;2023-06-24T14:19:15;6.95;;;3.90;;
44189;SDS011;29856;52.144;5.430;2023-06-24T14:21:41;5.40;;;3.58;;
44189;SDS011;29856;52.144;5.430;2023-06-24T14:24:06;4.05;;;3.28;;
44189;SDS011;29856;52.144;5.430;2023-06-24T14:26:32;5.05;;;3.90;;
44189;SDS011;29856;52.144;5.430;2023-06-24T14:28:58;9.20;;;4.15;;
44189;SDS011;29856;52.144;5.430;2023-06-24T14:31:24;8.05;;;5.05;;
44189;SDS011;29856;52.144;5.430;2023-06-24T14:33:51;6.50;;;4.65;;
44189;SDS011;29856;52.144;5.430;2023-06-24T14:36:17;4.38;;;3.80;;
44189;SDS011;29856;52.144;5.430;2023-06-24T14:38:46;5.50;;;4.20;;
44189;SDS011;29856;52.144;5.430;2023-06-24T14:41:11;5.20;;;3.88;;
44189;SDS011;29856;52.144;5.430;2023-06-24T14:43:37;5.75;;;4.03;;
44189;SDS011;29856;52.144;5.430;2023-06-24T14:46:02;6.95;;;3.88;;
44189;SDS011;29856;52.144;5.430;2023-06-24T14:48:28;6.90;;;4.00;;
44189;SDS011;29856;52.144;5.430;2023-06-24T14:50:53;4.97;;;3.85;;
44189;SDS011;29856;52.144;5.430;2023-06-24T14:53:19;4.43;;;3.38;;
44189;SDS011;29856;52.144;5.430;2023-06-24T14:55:44;5.70;;;3.92;;
44189;SDS011;29856;52.144;5.430;2023-06-24T14:58:10;5.63;;;3.72;;
44189;SDS011;29856;52.144;5.430;2023-06-24T15:00:35;12.77;;;9.63;;
44189;SDS011;29856;52.144;5.430;2023-06-24T15:03:01;5.60;;;4.10;;
44189;SDS011;29856;52.144;5.430;2023-06-24T15:05:26;6.65;;;3.72;;